Time;durP1;ratioP1;P1;durP2;ratioP2;P2;SDS_P1;SDS_P2;PMS_P1;PMS_P2;Temp;Humidity;BMP_temperature;BMP_pressure;BME280_temperature;BME280_humidity;BME280_pressure;Samples;Min_cycle;Max_cycle;Signal;HPM_P1;HPM_P2
2022/06/12 01:10:02;;;;;;;;;2.00;2.00;;;;;18.90;100.00;100802.78;6294023;22;44836;-91
2022/06/12 01:12:43;;;;;;;;;2.33;2.33;;;;;18.79;100.00;100792.00;6364800;22;45769;-91
2022/06/12 01:15:37;;;;;;;;;4.67;4.00;;;;;18.80;100.00;100793.81;6327617;22;45278;-90
2022/06/12 01:33:52;;;;;;;;;2.00;2.00;;;;;18.65;100.00;100818.44;6350417;22;46540;-93
2022/06/12 01:42:04;;;;;;;;;1.00;1.00;;;;;18.46;100.00;100801.34;6346755;22;45871;-91
2022/06/12 01:44:54;;;;;;;;;5.33;2.00;;;;;18.41;100.00;100796.88;6364032;22;46860;-91
2022/06/12 01:47:42;;;;;;;;;2.00;2.00;;;;;18.40;100.00;100811.00;6335467;22;44775;-90
2022/06/12 01:50:33;;;;;;;;;2.00;2.00;;;;;18.29;100.00;100808.22;6333564;22;44719;-90
2022/06/12 01:53:29;;;;;;;;;2.67;2.67;;;;;18.27;100.00;100801.09;6333956;22;44737;-91
2022/06/12 01:56:41;;;;;;;;;1.00;1.00;;;;;18.25;100.00;100802.81;6343694;22;45584;-91
2022/06/12 01:59:40;;;;;;;;;5.00;2.00;;;;;18.30;100.00;100819.72;6345645;22;45447;-92
2022/06/12 02:04:48;;;;;;;;;3.33;0.00;;;;;18.14;100.00;100806.19;6270393;22;46065;-94
2022/06/12 02:07:25;;;;;;;;;1.67;1.67;;;;;18.16;100.00;100819.50;6306234;22;47125;-95
2022/06/12 02:10:08;;;;;;;;;1.33;1.00;;;;;18.18;100.00;100826.63;6333398;22;45413;-94
2022/06/12 02:16:12;;;;;;;;;1.67;1.67;;;;;18.09;100.00;100826.50;6334222;22;45374;-95
2022/06/12 02:18:50;;;;;;;;;4.00;2.67;;;;;18.01;100.00;100812.19;6240752;22;48042;-94
2022/06/12 02:21:22;;;;;;;;;2.00;2.00;;;;;18.06;100.00;100816.72;6270066;22;45708;-95
2022/06/12 02:24:13;;;;;;;;;5.00;1.00;;;;;17.96;100.00;100814.78;6244877;22;45431;-94
2022/06/12 02:26:57;;;;;;;;;1.00;1.00;;;;;17.87;100.00;100804.91;6295688;22;45896;-94
2022/06/12 02:29:30;;;;;;;;;1.00;1.00;;;;;17.87;100.00;100805.81;6244370;22;48124;-94
2022/06/12 02:31:58;;;;;;;;;2.00;2.00;;;;;17.93;100.00;100826.25;6243943;22;45295;-94
2022/06/12 02:34:32;;;;;;;;;3.00;0.00;;;;;17.79;100.00;100812.75;6244498;22;45514;-95
2022/06/12 02:37:02;;;;;;;;;1.67;1.67;;;;;17.81;100.00;100803.03;6243116;22;45579;-94
2022/06/12 02:39:38;;;;;;;;;2.00;1.00;;;;;17.82;100.00;100811.91;6270462;22;46463;-95
2022/06/12 02:42:14;;;;;;;;;1.33;1.33;;;;;17.69;100.00;100797.53;6270034;22;45796;-93
2022/06/12 02:45:01;;;;;;;;;1.33;1.33;;;;;17.77;100.00;100811.81;6270123;22;45711;-95
2022/06/12 02:47:30;;;;;;;;;3.33;2.00;;;;;17.74;100.00;100819.72;6244590;22;45393;-95
2022/06/12 02:49:57;;;;;;;;;2.67;1.33;;;;;17.59;100.00;100794.72;6244103;22;48274;-94
2022/06/12 02:52:41;;;;;;;;;3.00;2.00;;;;;17.70;100.00;100825.88;6270596;22;45392;-94
2022/06/12 02:55:20;;;;;;;;;1.00;1.00;;;;;17.62;100.00;100810.72;6299469;22;45514;-94
2022/06/12 02:58:11;;;;;;;;;1.00;1.00;;;;;17.65;100.00;100815.19;6308094;22;45295;-95
2022/06/12 03:00:39;;;;;;;;;2.00;2.00;;;;;17.61;100.00;100814.22;6311996;22;47004;-93
2022/06/12 03:03:15;;;;;;;;;3.00;1.67;;;;;17.60;100.00;100825.69;6335444;22;45233;-93
2022/06/12 03:05:46;;;;;;;;;1.00;1.00;;;;;17.45;100.00;100798.88;6334639;22;45232;-94
2022/06/12 03:08:16;;;;;;;;;3.00;2.00;;;;;17.39;100.00;100787.31;6335857;22;45652;-95
2022/06/12 03:10:47;;;;;;;;;1.67;1.00;;;;;17.44;100.00;100802.41;6308614;22;47253;-94
2022/06/12 03:13:17;;;;;;;;;1.00;1.00;;;;;17.47;100.00;100808.66;6334331;22;45789;-94
2022/06/12 03:15:55;;;;;;;;;2.00;2.00;;;;;17.34;100.00;100786.34;6308901;22;45285;-94
2022/06/12 03:18:30;;;;;;;;;2.00;2.00;;;;;17.38;100.00;100795.25;6334864;22;45470;-94
2022/06/12 03:21:06;;;;;;;;;2.00;2.00;;;;;17.29;100.00;100783.59;6334253;22;47129;-94
2022/06/12 03:23:52;;;;;;;;;2.33;2.33;;;;;17.30;100.00;100796.00;6308863;22;45380;-93
2022/06/12 03:26:38;;;;;;;;;3.33;1.00;;;;;17.33;100.00;100804.88;6334936;22;45435;-94
2022/06/12 03:29:29;;;;;;;;;3.00;1.67;;;;;17.26;100.00;100798.56;6334605;22;45361;-94
2022/06/12 03:32:16;;;;;;;;;2.00;1.67;;;;;17.26;100.00;100802.13;6336112;22;45631;-93
2022/06/12 03:34:52;;;;;;;;;4.67;3.00;;;;;17.22;100.00;100800.25;6309218;22;45857;-96
2022/06/12 03:37:56;;;;;;;;;2.00;2.00;;;;;17.19;100.00;100802.84;6309025;22;45317;-94
2022/06/12 03:40:47;;;;;;;;;2.00;2.00;;;;;17.21;100.00;100819.72;6341132;22;45351;-94
2022/06/12 03:43:36;;;;;;;;;3.00;3.00;;;;;17.06;100.00;100794.63;6308146;22;47325;-94
2022/06/12 03:46:40;;;;;;;;;1.00;1.00;;;;;17.06;100.00;100788.47;6333252;22;45501;-94
2022/06/12 03:49:48;;;;;;;;;3.00;1.67;;;;;17.11;100.00;100796.50;6213423;22;45426;-95
2022/06/12 03:52:34;;;;;;;;;3.67;1.00;;;;;17.00;100.00;100783.94;6153786;23;45331;-94
2022/06/12 03:55:05;;;;;;;;;3.00;2.00;;;;;17.14;100.00;100805.38;6203803;22;48081;-94
2022/06/12 03:57:57;;;;;;;;;2.33;1.67;;;;;17.16;100.00;100816.06;6153419;23;45587;-95
2022/06/12 04:00:31;;;;;;;;;1.00;1.00;;;;;17.11;100.00;100809.75;6203409;22;45315;-93
2022/06/12 04:03:03;;;;;;;;;6.00;3.00;;;;;16.95;100.00;100783.84;6204233;22;45393;-94
2022/06/12 04:05:44;;;;;;;;;1.00;1.00;;;;;17.11;100.00;100807.09;6152765;23;47304;-95
2022/06/12 04:08:15;;;;;;;;;5.00;3.67;;;;;17.04;100.00;100791.06;6203962;22;45427;-94
2022/06/12 04:10:41;;;;;;;;;3.00;1.67;;;;;17.00;100.00;100786.56;6204014;22;45728;-94
2022/06/12 04:13:11;;;;;;;;;1.67;1.67;;;;;17.04;100.00;100792.81;6153503;23;45395;-93
2022/06/12 04:15:48;;;;;;;;;1.00;1.00;;;;;17.00;100.00;100793.63;6153912;23;48214;-94
2022/06/12 04:18:14;;;;;;;;;2.33;2.00;;;;;17.05;100.00;100808.78;6202627;22;45406;-94
2022/06/12 04:20:59;;;;;;;;;2.00;1.00;;;;;17.16;100.00;100813.41;6152604;23;45459;-94
2022/06/12 04:23:41;;;;;;;;;2.00;2.00;;;;;17.13;100.00;100808.03;6153479;23;45535;-93
2022/06/12 04:26:42;;;;;;;;;5.67;2.33;;;;;17.13;100.00;100803.63;6240634;22;47274;-94
2022/06/12 04:29:11;;;;;;;;;2.00;1.00;;;;;17.12;100.00;100801.81;6335343;22;45214;-94
2022/06/12 04:31:38;;;;;;;;;3.00;2.67;;;;;17.23;100.00;100823.28;6307228;22;45504;-95
2022/06/12 04:34:26;;;;;;;;;1.67;1.67;;;;;17.14;100.00;100800.09;6333581;22;45712;-94
2022/06/12 04:36:58;;;;;;;;;5.00;2.33;;;;;17.15;100.00;100795.69;6333624;22;47246;-95
2022/06/12 04:39:28;;;;;;;;;3.00;1.00;;;;;17.27;100.00;100813.59;6307458;22;45625;-94
2022/06/12 04:41:54;;;;;;;;;3.00;1.00;;;;;17.29;100.00;100802.16;6306571;22;45441;-94
2022/06/12 04:44:21;;;;;;;;;2.00;1.00;;;;;17.27;100.00;100798.59;6332964;22;45457;-94
2022/06/12 04:46:50;;;;;;;;;1.67;1.33;;;;;17.46;100.00;100817.50;6333134;22;46680;-94
2022/06/12 04:49:18;;;;;;;;;2.00;2.00;;;;;17.48;100.00;100814.88;6333359;22;45733;-94
2022/06/12 04:51:44;;;;;;;;;3.00;1.00;;;;;17.52;100.00;100812.28;6307881;22;45877;-94
2022/06/12 04:54:10;;;;;;;;;2.00;2.00;;;;;17.56;100.00;100807.03;6307254;22;45414;-93
2022/06/12 04:56:36;;;;;;;;;1.67;1.33;;;;;17.58;100.00;100803.53;6306827;22;47493;-94
2022/06/12 04:59:03;;;;;;;;;2.33;2.00;;;;;17.55;100.00;100798.19;6331703;22;45354;-94
2022/06/12 05:01:28;;;;;;;;;4.00;1.00;;;;;17.61;100.00;100792.09;6335006;22;45268;-93
2022/06/12 05:03:54;;;;;;;;;2.33;1.67;;;;;17.70;100.00;100804.63;6306856;22;45486;-94
2022/06/12 05:06:20;;;;;;;;;2.00;2.00;;;;;17.80;100.00;100805.69;6306030;22;48314;-94
2022/06/12 05:08:47;;;;;;;;;1.67;1.67;;;;;17.79;100.00;100796.81;6306777;22;45336;-94
2022/06/12 05:11:14;;;;;;;;;2.00;1.00;;;;;17.91;100.00;100797.88;6332645;22;45265;-94
2022/06/12 05:13:41;;;;;;;;;1.00;1.00;;;;;17.93;100.00;100790.84;6327953;22;45387;-92
2022/06/12 05:16:11;;;;;;;;;2.00;1.00;;;;;18.10;100.00;100807.00;6332467;22;47883;-94
2022/06/12 05:18:38;;;;;;;;;2.00;1.00;;;;;18.01;100.00;100791.84;6305662;22;45830;-93
2022/06/12 05:21:03;;;;;;;;;1.00;1.00;;;;;18.08;100.00;100783.09;6332493;22;45384;-94
2022/06/12 05:23:29;;;;;;;;;3.00;2.00;;;;;18.14;100.00;100782.28;6305997;22;45316;-93
2022/06/12 05:25:54;;;;;;;;;2.67;2.00;;;;;18.19;100.00;100779.72;6305831;22;48146;-94
2022/06/12 05:28:20;;;;;;;;;2.00;2.00;;;;;18.27;100.00;100783.38;6305711;22;46045;-94
2022/06/12 05:30:46;;;;;;;;;1.67;0.33;;;;;18.47;100.00;100798.72;6306235;22;45301;-93
2022/06/12 05:33:12;;;;;;;;;1.00;1.00;;;;;18.42;100.00;100782.72;6332310;22;45557;-93
2022/06/12 05:35:39;;;;;;;;;3.33;2.00;;;;;18.46;100.00;100782.72;6333649;22;45450;-94
2022/06/12 05:38:07;;;;;;;;;2.00;2.00;;;;;18.56;100.00;100786.41;6305822;22;45776;-93
2022/06/12 05:40:35;;;;;;;;;4.00;3.00;;;;;18.62;100.00;100781.19;6357938;22;45362;-93
2022/06/12 05:43:00;;;;;;;;;3.00;3.00;;;;;18.68;100.00;100781.28;6357875;22;45592;-91
2022/06/12 05:45:28;;;;;;;;;4.67;3.00;;;;;18.73;100.00;100773.34;6333056;22;46269;-93
2022/06/12 05:48:02;;;;;;;;;2.67;1.00;;;;;18.83;100.00;100775.25;6305728;22;45425;-92
2022/06/12 05:50:32;;;;;;;;;1.00;1.00;;;;;18.91;100.00;100793.03;6357765;22;45352;-93
2022/06/12 05:52:59;;;;;;;;;2.33;2.33;;;;;18.98;100.00;100800.22;6305161;22;45562;-93
2022/06/12 05:55:24;;;;;;;;;4.00;1.67;;;;;19.04;100.00;100800.28;6332907;22;47287;-93
2022/06/12 05:57:50;;;;;;;;;3.67;2.67;;;;;19.14;100.00;100805.69;6334976;22;45391;-94
2022/06/12 06:00:26;;;;;;;;;2.00;1.33;;;;;19.22;100.00;100797.84;6332663;22;45328;-92
2022/06/12 06:02:52;;;;;;;;;2.33;1.00;;;;;19.31;100.00;100805.91;6333450;22;45455;-93
2022/06/12 06:05:18;;;;;;;;;2.33;2.00;;;;;19.29;100.00;100799.66;6332393;22;48042;-93
2022/06/12 06:07:43;;;;;;;;;1.67;1.67;;;;;19.31;100.00;100790.81;6336126;22;45280;-93
2022/06/12 06:10:14;;;;;;;;;1.00;1.00;;;;;19.55;100.00;100817.66;6306601;22;45273;-92
2022/06/12 06:12:39;;;;;;;;;2.33;1.00;;;;;19.75;100.00;100811.59;6307188;22;45325;-93
2022/06/12 06:15:06;;;;;;;;;2.00;1.00;;;;;19.86;100.00;100801.94;6332142;22;48323;-92
2022/06/12 06:17:31;;;;;;;;;2.67;2.67;;;;;19.94;100.00;100796.69;6307015;22;45575;-93
2022/06/12 06:19:56;;;;;;;;;1.67;1.00;;;;;20.07;100.00;100804.75;6308948;22;45577;-93
2022/06/12 06:22:22;;;;;;;;;1.67;1.67;;;;;20.09;100.00;100809.22;6308658;22;45444;-93
2022/06/12 06:24:47;;;;;;;;;2.00;2.00;;;;;20.16;100.00;100822.59;6335778;22;46200;-94
2022/06/12 06:27:14;;;;;;;;;3.67;2.00;;;;;20.23;100.00;100835.06;6335257;22;45335;-94
2022/06/12 06:29:40;;;;;;;;;3.00;2.00;;;;;20.27;100.00;100826.22;6359461;22;45288;-92
2022/06/12 06:32:07;;;;;;;;;3.00;1.67;;;;;20.28;100.00;100837.78;6307334;22;45409;-94
2022/06/12 06:34:34;;;;;;;;;2.00;2.00;;;;;20.33;100.00;100844.03;6335763;22;45704;-95
2022/06/12 06:36:59;;;;;;;;;3.00;1.33;;;;;20.38;100.00;100846.72;6307643;22;45623;-94
2022/06/12 06:39:25;;;;;;;;;1.67;1.67;;;;;20.41;100.00;100844.94;6333742;22;45358;-95
2022/06/12 06:41:50;;;;;;;;;1.00;1.00;;;;;20.48;100.00;100848.56;6342011;22;45300;-95
2022/06/12 06:46:59;;;;;;;;;1.00;1.00;;;;;20.58;100.00;100837.94;6345016;22;45604;-93
2022/06/12 06:49:25;;;;;;;;;2.67;1.00;;;;;20.66;100.00;100841.53;6338259;22;45293;-94
2022/06/12 06:51:51;;;;;;;;;4.00;2.67;;;;;20.69;100.00;100849.56;6307771;22;45396;-94
2022/06/12 06:54:17;;;;;;;;;3.00;2.00;;;;;20.75;100.00;100856.69;6335894;22;46131;-94
2022/06/12 06:56:43;;;;;;;;;1.67;1.67;;;;;20.77;100.00;100850.47;6336182;22;45291;-94
2022/06/12 06:59:08;;;;;;;;;4.00;2.00;;;;;20.81;100.00;100853.16;6307363;22;45334;-95
2022/06/12 07:01:34;;;;;;;;;3.00;3.00;;;;;20.85;100.00;100845.16;6308424;22;45379;-94
2022/06/12 07:04:01;;;;;;;;;2.33;2.00;;;;;20.96;100.00;100855.00;6341310;22;45434;-95
2022/06/12 07:06:26;;;;;;;;;2.33;2.33;;;;;21.00;100.00;100859.47;6335879;22;45166;-94
2022/06/12 07:08:53;;;;;;;;;4.00;2.00;;;;;21.04;100.00;100850.59;6335914;22;45194;-94
2022/06/12 07:11:19;;;;;;;;;1.67;1.33;;;;;21.09;100.00;100842.63;6307209;22;45838;-95
2022/06/12 07:13:45;;;;;;;;;4.00;2.33;;;;;21.16;100.00;100878.22;6333501;22;48384;-95
2022/06/12 07:16:10;;;;;;;;;5.00;2.00;;;;;21.19;100.00;100896.91;6308489;22;45296;-96
2022/06/12 07:18:35;;;;;;;;;4.00;4.00;;;;;21.17;100.00;100904.91;6336756;22;45250;-95
2022/06/12 07:21:01;;;;;;;;;3.67;3.00;;;;;21.23;100.00;100897.81;6313193;22;45617;-91
2022/06/12 07:23:28;;;;;;;;;1.33;1.00;;;;;21.26;100.00;100922.72;6342538;22;46271;-94
2022/06/12 07:25:59;;;;;;;;;2.00;2.00;;;;;21.27;100.00;100918.28;6346951;22;45214;-95
2022/06/12 07:28:26;;;;;;;;;2.33;1.67;;;;;21.29;100.00;100913.84;6364263;22;45581;-94
2022/06/12 07:30:52;;;;;;;;;2.00;1.67;;;;;21.34;100.00;100896.06;6362661;22;45494;-93
2022/06/12 07:33:18;;;;;;;;;1.00;1.00;;;;;21.44;100.00;100902.34;6337856;22;45268;-95
2022/06/12 07:35:45;;;;;;;;;4.00;2.00;;;;;21.50;100.00;100882.75;6341930;22;45303;-92
2022/06/12 07:38:14;;;;;;;;;3.00;3.00;;;;;21.58;100.00;100890.78;6367928;22;45355;-95
2022/06/12 07:40:43;;;;;;;;;10.00;5.33;;;;;21.68;100.00;100886.31;6346534;22;45238;-92
2022/06/12 07:43:09;;;;;;;;;3.00;2.00;;;;;21.76;100.00;100895.25;6344510;22;46656;-94
2022/06/12 07:45:39;;;;;;;;;2.33;2.00;;;;;21.82;100.00;100905.06;6340240;22;45289;-93
2022/06/12 07:48:05;;;;;;;;;4.00;4.00;;;;;21.89;100.00;100890.84;6340135;22;45315;-92
2022/06/12 07:50:31;;;;;;;;;3.00;3.00;;;;;22.02;100.00;100893.50;6370089;22;45384;-94
2022/06/12 07:52:58;;;;;;;;;3.67;2.67;;;;;22.14;100.00;100904.19;6341084;22;47166;-93
2022/06/12 07:55:24;;;;;;;;;2.00;2.00;;;;;22.20;100.00;100922.03;6340757;22;45233;-94
2022/06/12 07:57:49;;;;;;;;;4.33;1.00;;;;;22.24;100.00;100910.41;6368027;22;45213;-94
2022/06/12 08:00:16;;;;;;;;;1.00;1.00;;;;;22.32;100.00;100947.84;6343787;22;45194;-93
2022/06/12 08:02:44;;;;;;;;;2.00;2.00;;;;;22.37;100.00;100919.31;6311706;22;47127;-92
2022/06/12 08:05:11;;;;;;;;;3.00;3.00;;;;;22.47;100.00;100920.19;6338806;22;46199;-92
2022/06/12 08:07:37;;;;;;;;;3.67;2.33;;;;;22.55;100.00;100950.50;6363860;22;45291;-94
2022/06/12 08:10:04;;;;;;;;;2.00;2.00;;;;;22.61;100.00;101008.47;6337270;22;45601;-95
2022/06/12 08:12:32;;;;;;;;;1.67;0.67;;;;;22.56;100.00;101010.25;6362021;22;48033;-95
2022/06/12 08:14:57;;;;;;;;;1.00;1.00;;;;;22.56;100.00;101012.91;6362071;22;45343;-90
2022/06/12 08:17:23;;;;;;;;;1.00;1.00;;;;;22.64;100.00;101002.22;6336027;22;45497;-95
2022/06/12 08:22:32;;;;;;;;;2.00;2.00;;;;;22.90;100.00;100976.34;6339246;22;45703;-95
2022/06/12 08:24:58;;;;;;;;;1.67;1.00;;;;;23.02;100.00;100976.28;6338699;22;45260;-94
2022/06/12 08:27:23;;;;;;;;;4.00;3.33;;;;;23.14;100.00;100966.47;6342131;22;45382;-94
2022/06/12 08:32:24;;;;;;;;;10.67;7.00;;;;;23.27;100.00;100984.22;6333508;22;46775;-94
2022/06/12 08:34:55;;;;;;;;;3.67;1.00;;;;;23.33;100.00;100973.50;6343990;22;45154;-94
2022/06/12 08:37:37;;;;;;;;;3.00;3.00;;;;;23.48;100.00;100987.72;6345683;22;45284;-96
2022/06/12 08:40:04;;;;;;;;;1.33;1.33;;;;;23.58;100.00;100993.94;6309595;22;45202;-96
2022/06/12 08:42:41;;;;;;;;;1.00;1.00;;;;;23.63;100.00;101020.72;6312678;22;47532;-96
2022/06/12 08:45:15;;;;;;;;;0.00;0.00;;;;;23.76;96.83;101118.03;6338203;22;45429;-95
2022/06/12 08:47:59;;;;;;;;;1.00;1.00;;;;;23.81;98.25;101104.63;6310769;22;45346;-93
2022/06/12 08:50:50;;;;;;;;;3.00;2.00;;;;;23.91;98.99;101067.94;6337957;22;45144;-96
2022/06/12 08:53:49;;;;;;;;;1.00;1.00;;;;;23.95;95.95;101150.09;6311112;22;47910;-96
2022/06/12 08:56:28;;;;;;;;;3.00;1.67;;;;;24.01;97.17;101096.47;6338278;22;45271;-92
2022/06/12 08:59:10;;;;;;;;;2.33;1.00;;;;;24.07;96.99;101111.63;6309046;22;45261;-95
2022/06/12 09:01:41;;;;;;;;;2.67;2.67;;;;;24.16;97.18;101099.94;6310141;22;45394;-95
2022/06/12 09:04:12;;;;;;;;;6.67;4.67;;;;;24.22;96.14;101138.34;6311114;22;47569;-95
2022/06/12 09:06:38;;;;;;;;;3.00;2.33;;;;;24.29;96.42;101120.47;6307724;22;45213;-95
2022/06/12 09:09:09;;;;;;;;;0.67;0.67;;;;;24.37;95.77;101130.25;6348138;22;45245;-96
2022/06/12 09:12:10;;;;;;;;;2.00;1.00;;;;;24.42;94.60;101166.88;6344738;22;45399;-95
2022/06/12 09:15:03;;;;;;;;;3.67;2.00;;;;;24.63;95.94;101135.44;6344123;22;45489;-93
2022/06/12 09:17:47;;;;;;;;;2.00;2.00;;;;;24.86;94.73;101163.00;6315069;22;45387;-94
2022/06/12 09:20:49;;;;;;;;;2.67;1.00;;;;;25.01;93.73;101194.25;6341771;22;45309;-94
2022/06/12 09:23:40;;;;;;;;;4.00;3.67;;;;;25.16;94.13;101173.50;6244188;22;45554;-93
2022/06/12 09:26:30;;;;;;;;;4.67;3.00;;;;;25.26;94.68;101142.09;6244295;22;47216;-94
2022/06/12 09:29:14;;;;;;;;;3.67;2.33;;;;;25.35;94.86;101136.63;6270815;22;45794;-94
2022/06/12 09:31:54;;;;;;;;;3.33;2.33;;;;;25.44;94.68;101141.91;6245368;22;45592;-94
2022/06/12 09:34:26;;;;;;;;;0.67;0.67;;;;;25.52;94.92;101123.00;6245447;22;45426;-93
2022/06/12 09:40:04;;;;;;;;;2.00;1.00;;;;;25.80;94.71;101115.56;6271562;22;45508;-95
2022/06/12 09:42:59;;;;;;;;;5.33;1.00;;;;;26.09;94.46;101146.53;6246054;22;45241;-94
2022/06/12 09:45:48;;;;;;;;;2.67;1.67;;;;;26.34;94.73;101157.84;6244701;22;45342;-92
2022/06/12 09:48:41;;;;;;;;;2.33;2.00;;;;;26.47;94.67;101137.97;6242984;22;47291;-94
2022/06/12 09:51:34;;;;;;;;;5.00;3.67;;;;;26.80;95.85;101108.72;6245317;22;46137;-93
2022/06/12 09:54:10;;;;;;;;;2.00;2.00;;;;;27.81;97.30;101064.59;6272729;22;45445;-94
2022/06/12 09:56:42;;;;;;;;;4.00;4.00;;;;;29.86;91.82;101255.91;6270447;22;45393;-92
2022/06/12 09:59:13;;;;;;;;;2.00;2.00;;;;;32.01;92.63;101687.91;6255362;22;47356;-92
2022/06/12 10:01:44;;;;;;;;;3.00;3.00;;;;;33.57;89.84;101825.19;6305796;22;45327;-91
2022/06/12 10:04:13;;;;;;;;;3.00;3.00;;;;;34.20;87.25;101905.53;6333528;22;45253;-92
2022/06/12 10:06:48;;;;;;;;;4.00;2.67;;;;;35.40;86.39;101906.47;6305045;22;45326;-92
2022/06/12 10:09:28;;;;;;;;;4.00;3.00;;;;;37.06;85.21;101936.47;6305129;22;48326;-91
2022/06/12 10:12:02;;;;;;;;;1.33;1.33;;;;;39.03;81.69;101977.41;6305043;22;45284;-92
2022/06/12 10:14:37;;;;;;;;;4.67;3.00;;;;;40.87;78.98;102008.59;6333094;22;45167;-93
2022/06/12 10:17:14;;;;;;;;;5.67;5.67;;;;;41.78;72.55;102059.59;6305980;22;45563;-92
2022/06/12 10:19:49;;;;;;;;;6.00;4.67;;;;;42.13;70.18;102066.44;6305613;22;47030;-94
2022/06/12 10:22:24;;;;;;;;;3.00;2.00;;;;;42.68;68.03;102070.91;6308214;22;46113;-94
2022/06/12 10:24:50;;;;;;;;;5.00;5.00;;;;;43.58;66.65;102076.34;6337549;22;45351;-95
2022/06/12 10:27:18;;;;;;;;;10.00;8.33;;;;;43.93;62.86;102087.59;6342871;22;45617;-91
2022/06/12 10:30:03;;;;;;;;;6.67;5.67;;;;;44.17;59.71;102095.88;6311547;22;47781;-94
2022/06/12 10:32:47;;;;;;;;;5.33;3.33;;;;;44.59;57.12;102101.88;6343584;22;45383;-94
2022/06/12 10:35:17;;;;;;;;;6.67;6.67;;;;;45.40;57.65;102094.44;6335243;22;45332;-92
2022/06/12 10:37:42;;;;;;;;;2.67;2.67;;;;;46.45;54.09;102095.75;6313649;22;45265;-90
2022/06/12 10:40:24;;;;;;;;;3.00;3.00;;;;;47.45;54.27;102092.34;6306524;22;47055;-91
2022/06/12 10:43:00;;;;;;;;;2.00;2.00;;;;;48.66;53.28;102096.81;6307861;22;46112;-95
2022/06/12 10:45:33;;;;;;;;;1.33;1.00;;;;;49.76;52.69;102083.97;6341386;22;45360;-93
2022/06/12 10:48:03;;;;;;;;;3.00;2.00;;;;;50.68;49.86;102087.41;6314159;22;45392;-92
2022/06/12 10:50:35;;;;;;;;;3.33;3.33;;;;;51.35;47.97;102083.97;6308294;22;47841;-94
2022/06/12 10:53:09;;;;;;;;;2.00;2.00;;;;;52.06;46.97;102091.88;6349172;22;45334;-92
2022/06/12 10:55:37;;;;;;;;;1.33;1.33;;;;;52.52;44.65;102084.81;6310183;22;45274;-93
2022/06/12 10:58:18;;;;;;;;;4.00;1.00;;;;;53.00;43.99;102083.03;6308133;22;45355;-93
2022/06/12 11:00:47;;;;;;;;;8.00;7.00;;;;;53.51;42.32;102083.56;6317772;22;48662;-90
2022/06/12 11:03:26;;;;;;;;;8.00;7.67;;;;;54.06;41.62;102085.41;6310193;22;45646;-92
2022/06/12 11:06:29;;;;;;;;;5.00;4.33;;;;;54.44;39.64;102081.63;6337732;22;45315;-89
2022/06/12 11:09:23;;;;;;;;;2.67;2.67;;;;;54.58;38.78;102073.41;6342270;22;45587;-93
2022/06/12 11:12:12;;;;;;;;;5.00;5.00;;;;;54.71;38.69;102082.03;6306184;22;48391;-92
2022/06/12 11:15:03;;;;;;;;;13.67;12.00;;;;;55.34;38.52;102074.09;6308631;22;45302;-92
2022/06/12 11:17:47;;;;;;;;;4.33;4.33;;;;;55.89;38.12;102063.31;6306850;22;45337;-92
2022/06/12 11:20:42;;;;;;;;;0.00;0.00;;;;;56.50;37.03;102052.41;6334465;22;45232;-93
2022/06/12 11:23:52;;;;;;;;;53.25;43.75;;;;;57.07;36.03;102053.28;6335726;22;46748;-92
2022/06/12 11:26:29;;;;;;;;;24.75;23.75;;;;;57.55;35.66;102055.09;6274504;22;45874;-92
2022/06/12 11:29:00;;;;;;;;;21.67;21.67;;;;;58.01;35.35;102045.91;6335218;22;45254;-96
2022/06/12 11:32:06;;;;;;;;;66.50;54.00;;;;;58.16;33.45;102045.66;6340228;22;45457;-96
2022/06/12 11:34:45;;;;;;;;;52.00;40.75;;;;;58.33;34.23;102039.50;6298770;22;47480;-96
2022/06/12 12:07:43;;;;;;;;;193.00;179.00;;;;;62.58;28.99;101993.75;6291416;22;46306;-95
2022/06/12 12:10:14;;;;;;;;;8.67;8.67;;;;;62.66;28.03;102012.38;6310143;22;44837;-96
2022/06/12 12:12:46;;;;;;;;;28.50;24.75;;;;;62.58;28.00;101986.06;6325924;22;45254;-96
2022/06/12 12:15:24;;;;;;;;;44.75;37.00;;;;;62.83;28.14;101991.63;6313521;22;46102;-94
2022/06/12 12:17:53;;;;;;;;;41.50;34.50;;;;;63.00;28.15;101991.59;6280580;22;46333;-96
2022/06/12 12:31:13;;;;;;;;;10.00;7.25;;;;;64.42;26.85;101991.53;6327108;22;45341;-96
2022/06/12 12:33:41;;;;;;;;;1.00;1.00;;;;;64.41;26.50;101967.84;6361088;22;44676;-95
2022/06/12 12:44:31;;;;;;;;;1.00;1.00;;;;;65.41;26.11;101980.94;6337476;22;46054;-95
2022/06/12 12:52:19;;;;;;;;;2.00;2.00;;;;;67.06;24.54;101951.22;6333452;22;45111;-96
2022/06/12 12:57:42;;;;;;;;;4.00;4.00;;;;;68.22;24.57;101950.66;6334665;22;45929;-96
2022/06/12 13:00:25;;;;;;;;;0.00;0.00;;;;;68.93;24.15;101960.94;6285597;22;46187;-96
2022/06/12 13:03:00;;;;;;;;;0.00;0.00;;;;;69.59;23.77;101956.72;6360990;22;44613;-96
2022/06/12 13:05:36;;;;;;;;;0.67;0.67;;;;;70.20;23.17;101958.94;6329896;22;44862;-96
2022/06/12 13:08:45;;;;;;;;;3.67;2.00;;;;;70.88;22.24;101966.41;6345020;22;45395;-96
2022/06/12 13:11:40;;;;;;;;;0.00;0.00;;;;;71.18;22.04;101961.19;6319984;22;45645;-96
2022/06/12 14:29:34;;;;;;;;;0.00;0.00;;;;;66.46;22.72;101900.38;6269709;22;46041;-95
2022/06/12 14:45:24;;;;;;;;;1.75;1.75;;;;;58.65;24.50;101855.03;6345271;22;46407;-96
2022/06/12 14:47:50;;;;;;;;;1.00;1.00;;;;;55.53;25.43;101846.63;6334386;22;45445;-95
2022/06/12 14:50:16;;;;;;;;;0.00;0.00;;;;;52.75;27.14;101839.41;6322549;22;45365;-94
2022/06/12 14:52:41;;;;;;;;;2.00;0.67;;;;;50.28;28.36;101856.19;6303774;22;45342;-96
2022/06/12 14:55:11;;;;;;;;;0.33;0.33;;;;;47.88;29.63;101833.47;6237781;22;47402;-94
2022/06/12 14:57:36;;;;;;;;;2.67;1.67;;;;;46.02;30.24;101846.13;6234440;22;45204;-95
2022/06/12 15:00:03;;;;;;;;;2.00;2.00;;;;;44.35;31.61;101835.38;6263030;22;45065;-93
2022/06/12 15:02:30;;;;;;;;;0.00;0.00;;;;;42.99;32.84;101844.16;6290352;22;45219;-92
2022/06/12 15:04:58;;;;;;;;;0.00;0.00;;;;;41.75;33.64;101837.50;6257658;22;48316;-94
2022/06/12 15:12:33;;;;;;;;;2.00;0.00;;;;;38.72;37.20;101818.19;6311869;22;45635;-93
2022/06/12 15:14:59;;;;;;;;;6.00;1.00;;;;;37.96;38.13;101804.16;6332561;22;46714;-92
2022/06/12 15:17:24;;;;;;;;;7.00;5.67;;;;;37.32;38.33;101820.19;6334638;22;45245;-93
2022/06/12 15:19:50;;;;;;;;;2.00;1.00;;;;;36.67;38.55;101816.13;6359484;22;44684;-93
2022/06/12 15:22:18;;;;;;;;;1.00;1.00;;;;;36.14;39.16;101818.59;6302625;22;45464;-93
2022/06/12 15:24:45;;;;;;;;;2.00;2.00;;;;;35.48;40.51;101797.88;6305589;22;45356;-93
2022/06/12 15:29:55;;;;;;;;;0.67;0.00;;;;;34.40;41.61;101802.25;6355268;22;45221;-92
2022/06/12 15:50:33;;;;;;;;;0.67;0.67;;;;;31.75;45.81;101776.44;6330964;22;45309;-92
2022/06/12 16:00:53;;;;;;;;;2.00;2.00;;;;;30.74;47.46;101787.09;6320729;22;45678;-91
2022/06/12 16:03:20;;;;;;;;;1.33;0.00;;;;;30.54;47.20;101774.88;6300265;22;44768;-92
2022/06/12 16:05:47;;;;;;;;;2.33;2.00;;;;;30.39;48.06;101778.81;6296196;22;45262;-90
2022/06/12 16:08:13;;;;;;;;;0.00;0.00;;;;;30.19;48.65;101761.19;6299471;22;44757;-92
2022/06/12 16:10:39;;;;;;;;;1.67;1.00;;;;;30.09;48.86;101774.03;6303652;22;44673;-92
2022/06/12 16:15:55;;;;;;;;;7.00;6.00;;;;;29.85;49.79;101762.78;6343929;22;45452;-96
2022/06/12 16:20:56;;;;;;;;;2.33;2.33;;;;;29.62;50.30;101774.91;6353213;22;46052;-94
2022/06/12 16:23:22;;;;;;;;;2.67;1.33;;;;;29.43;50.40;101755.44;6361411;22;45051;-94
2022/06/12 16:25:48;;;;;;;;;1.00;1.00;;;;;29.25;50.90;101756.66;6319451;22;46799;-92
2022/06/12 16:33:24;;;;;;;;;1.67;1.00;;;;;28.94;50.01;101763.44;6324494;22;45229;-95
2022/06/12 16:35:51;;;;;;;;;2.00;2.00;;;;;28.76;51.04;101744.78;6356781;22;45124;-90
2022/06/12 16:40:54;;;;;;;;;5.33;2.00;;;;;28.59;52.12;101739.66;6307120;22;46079;-91
2022/06/12 16:43:20;;;;;;;;;2.00;1.00;;;;;28.61;51.81;101763.94;6319243;22;46266;-93
2022/06/12 16:45:46;;;;;;;;;2.00;2.00;;;;;28.51;52.23;101755.97;6278710;22;46478;-88
2022/06/12 16:48:13;;;;;;;;;3.00;3.00;;;;;28.33;53.17;101722.00;6275223;22;46336;-92
2022/06/12 16:50:38;;;;;;;;;3.00;2.00;;;;;28.31;53.42;101738.22;6290695;22;46239;-92